sensor_id;sensor_type;location;lat;lon;timestamp;temperature;humidity
10263;DHT22;5177;50.068;8.156;2023-04-25T00:02:17;9.00;99.90
10263;DHT22;5177;50.068;8.156;2023-04-25T00:04:43;9.00;99.90
10263;DHT22;5177;50.068;8.156;2023-04-25T00:07:08;9.00;99.90
10263;DHT22;5177;50.068;8.156;2023-04-25T00:09:34;9.10;99.90
10263;DHT22;5177;50.068;8.156;2023-04-25T00:12:00;9.10;99.90
10263;DHT22;5177;50.068;8.156;2023-04-25T00:14:26;9.10;99.90
10263;DHT22;5177;50.068;8.156;2023-04-25T00:16:53;9.10;99.90
10263;DHT22;5177;50.068;8.156;2023-04-25T00:19:19;9.20;99.90
10263;DHT22;5177;50.068;8.156;2023-04-25T00:21:45;9.20;99.90
10263;DHT22;5177;50.068;8.156;2023-04-25T00:24:11;9.20;99.90
10263;DHT22;5177;50.068;8.156;2023-04-25T00:26:37;9.10;99.90
10263;DHT22;5177;50.068;8.156;2023-04-25T00:29:03;9.20;99.90
10263;DHT22;5177;50.068;8.156;2023-04-25T00:31:28;9.10;99.90
10263;DHT22;5177;50.068;8.156;2023-04-25T00:33:54;9.20;99.90
10263;DHT22;5177;50.068;8.156;2023-04-25T00:36:20;9.10;99.90
10263;DHT22;5177;50.068;8.156;2023-04-25T00:38:45;9.20;99.90
10263;DHT22;5177;50.068;8.156;2023-04-25T00:41:11;9.20;99.90
10263;DHT22;5177;50.068;8.156;2023-04-25T00:43:37;9.10;99.90
10263;DHT22;5177;50.068;8.156;2023-04-25T00:46:02;9.10;99.90
10263;DHT22;5177;50.068;8.156;2023-04-25T00:48:28;9.20;99.90
10263;DHT22;5177;50.068;8.156;2023-04-25T00:50:54;9.20;99.90
10263;DHT22;5177;50.068;8.156;2023-04-25T00:53:21;9.20;99.90
10263;DHT22;5177;50.068;8.156;2023-04-25T00:55:47;9.10;99.90
10263;DHT22;5177;50.068;8.156;2023-04-25T00:58:12;9.10;99.90
10263;DHT22;5177;50.068;8.156;2023-04-25T01:00:38;9.10;99.90
10263;DHT22;5177;50.068;8.156;2023-04-25T01:03:05;9.10;99.90
10263;DHT22;5177;50.068;8.156;2023-04-25T01:05:31;9.10;99.90
10263;DHT22;5177;50.068;8.156;2023-04-25T01:07:56;9.10;99.90
10263;DHT22;5177;50.068;8.156;2023-04-25T01:10:22;9.20;99.90
10263;DHT22;5177;50.068;8.156;2023-04-25T01:12:47;9.20;99.90
10263;DHT22;5177;50.068;8.156;2023-04-25T01:15:13;9.20;99.90
10263;DHT22;5177;50.068;8.156;2023-04-25T01:17:38;9.20;99.90
10263;DHT22;5177;50.068;8.156;2023-04-25T01:20:05;9.20;99.90
10263;DHT22;5177;50.068;8.156;2023-04-25T01:22:32;9.10;99.90
10263;DHT22;5177;50.068;8.156;2023-04-25T01:24:58;9.10;99.90
10263;DHT22;5177;50.068;8.156;2023-04-25T01:27:25;9.10;99.90
10263;DHT22;5177;50.068;8.156;2023-04-25T01:29:51;9.10;99.90
10263;DHT22;5177;50.068;8.156;2023-04-25T01:32:16;9.10;99.90
10263;DHT22;5177;50.068;8.156;2023-04-25T01:34:42;9.10;99.90
10263;DHT22;5177;50.068;8.156;2023-04-25T01:37:08;9.10;99.90
10263;DHT22;5177;50.068;8.156;2023-04-25T01:39:33;9.00;99.90
10263;DHT22;5177;50.068;8.156;2023-04-25T01:41:59;9.10;99.90
10263;DHT22;5177;50.068;8.156;2023-04-25T01:44:25;9.00;99.90
10263;DHT22;5177;50.068;8.156;2023-04-25T01:46:51;9.10;99.90
10263;DHT22;5177;50.068;8.156;2023-04-25T01:49:16;9.10;99.90
10263;DHT22;5177;50.068;8.156;2023-04-25T01:51:42;9.10;99.90
10263;DHT22;5177;50.068;8.156;2023-04-25T01:54:08;9.00;99.90
10263;DHT22;5177;50.068;8.156;2023-04-25T01:56:36;9.10;99.90
10263;DHT22;5177;50.068;8.156;2023-04-25T01:59:01;9.10;99.90
10263;DHT22;5177;50.068;8.156;2023-04-25T02:01:27;9.00;99.90
10263;DHT22;5177;50.068;8.156;2023-04-25T02:03:52;9.00;99.90
10263;DHT22;5177;50.068;8.156;2023-04-25T02:06:18;9.20;99.90
10263;DHT22;5177;50.068;8.156;2023-04-25T02:08:43;9.10;99.90
10263;DHT22;5177;50.068;8.156;2023-04-25T02:11:09;9.10;99.90
10263;DHT22;5177;50.068;8.156;2023-04-25T02:13:34;9.10;99.90
10263;DHT22;5177;50.068;8.156;2023-04-25T02:16:00;9.10;99.90
10263;DHT22;5177;50.068;8.156;2023-04-25T02:18:25;9.00;99.90
10263;DHT22;5177;50.068;8.156;2023-04-25T02:20:51;9.10;99.90
10263;DHT22;5177;50.068;8.156;2023-04-25T02:23:17;9.00;99.90
10263;DHT22;5177;50.068;8.156;2023-04-25T02:25:44;9.00;99.90
10263;DHT22;5177;50.068;8.156;2023-04-25T02:28:10;9.00;99.90
10263;DHT22;5177;50.068;8.156;2023-04-25T02:30:35;9.00;99.90
10263;DHT22;5177;50.068;8.156;2023-04-25T02:33:01;9.00;99.90
10263;DHT22;5177;50.068;8.156;2023-04-25T02:35:26;9.00;99.90
10263;DHT22;5177;50.068;8.156;2023-04-25T02:37:52;9.00;99.90
10263;DHT22;5177;50.068;8.156;2023-04-25T02:40:17;9.00;99.90
10263;DHT22;5177;50.068;8.156;2023-04-25T02:42:43;8.90;99.90
10263;DHT22;5177;50.068;8.156;2023-04-25T02:45:11;9.00;99.90
10263;DHT22;5177;50.068;8.156;2023-04-25T02:47:36;9.00;99.90
10263;DHT22;5177;50.068;8.156;2023-04-25T02:50:02;9.00;99.90
10263;DHT22;5177;50.068;8.156;2023-04-25T02:52:27;8.90;99.90
10263;DHT22;5177;50.068;8.156;2023-04-25T02:54:53;8.90;99.90
10263;DHT22;5177;50.068;8.156;2023-04-25T02:57:18;9.00;99.90
10263;DHT22;5177;50.068;8.156;2023-04-25T02:59:44;8.90;99.90
10263;DHT22;5177;50.068;8.156;2023-04-25T03:02:09;9.10;99.90
10263;DHT22;5177;50.068;8.156;2023-04-25T03:04:35;9.00;99.90
10263;DHT22;5177;50.068;8.156;2023-04-25T03:07:00;9.00;99.90
10263;DHT22;5177;50.068;8.156;2023-04-25T03:09:26;9.00;99.90
10263;DHT22;5177;50.068;8.156;2023-04-25T03:11:52;8.90;99.90
10263;DHT22;5177;50.068;8.156;2023-04-25T03:14:17;8.90;99.90
10263;DHT22;5177;50.068;8.156;2023-04-25T03:16:43;8.90;99.90
10263;DHT22;5177;50.068;8.156;2023-04-25T03:19:08;9.00;99.90
10263;DHT22;5177;50.068;8.156;2023-04-25T03:21:34;8.90;99.90
10263;DHT22;5177;50.068;8.156;2023-04-25T03:24:00;8.90;99.90
10263;DHT22;5177;50.068;8.156;2023-04-25T03:26:27;9.00;99.90
10263;DHT22;5177;50.068;8.156;2023-04-25T03:28:52;8.90;99.90
10263;DHT22;5177;50.068;8.156;2023-04-25T03:31:18;8.80;99.90
10263;DHT22;5177;50.068;8.156;2023-04-25T03:33:43;8.80;99.90
10263;DHT22;5177;50.068;8.156;2023-04-25T03:36:09;8.80;99.90
10263;DHT22;5177;50.068;8.156;2023-04-25T03:38:35;8.80;99.90
10263;DHT22;5177;50.068;8.156;2023-04-25T03:41:01;8.80;99.90
10263;DHT22;5177;50.068;8.156;2023-04-25T03:43:26;8.80;99.90
10263;DHT22;5177;50.068;8.156;2023-04-25T03:45:52;8.80;99.90
10263;DHT22;5177;50.068;8.156;2023-04-25T03:48:17;8.80;99.90
10263;DHT22;5177;50.068;8.156;2023-04-25T03:50:43;8.80;99.90
10263;DHT22;5177;50.068;8.156;2023-04-25T03:53:08;8.80;99.90
10263;DHT22;5177;50.068;8.156;2023-04-25T03:55:34;8.80;99.90
10263;DHT22;5177;50.068;8.156;2023-04-25T03:57:59;8.80;99.90
10263;DHT22;5177;50.068;8.156;2023-04-25T04:00:25;8.70;99.90
10263;DHT22;5177;50.068;8.156;2023-04-25T04:02:51;8.70;99.90
10263;DHT22;5177;50.068;8.156;2023-04-25T04:05:16;8.70;99.90
10263;DHT22;5177;50.068;8.156;2023-04-25T04:07:42;8.70;99.90
10263;DHT22;5177;50.068;8.156;2023-04-25T04:10:11;8.80;99.90
10263;DHT22;5177;50.068;8.156;2023-04-25T04:12:37;8.80;99.90
10263;DHT22;5177;50.068;8.156;2023-04-25T04:15:03;8.70;99.90
10263;DHT22;5177;50.068;8.156;2023-04-25T04:17:29;8.70;99.90
10263;DHT22;5177;50.068;8.156;2023-04-25T04:19:55;8.80;99.90
10263;DHT22;5177;50.068;8.156;2023-04-25T04:22:21;8.60;99.90
10263;DHT22;5177;50.068;8.156;2023-04-25T04:24:47;8.50;99.90
10263;DHT22;5177;50.068;8.156;2023-04-25T04:27:12;8.50;99.90
10263;DHT22;5177;50.068;8.156;2023-04-25T04:29:38;8.50;99.90
10263;DHT22;5177;50.068;8.156;2023-04-25T04:32:03;8.40;99.90
10263;DHT22;5177;50.068;8.156;2023-04-25T04:34:30;8.40;99.90
10263;DHT22;5177;50.068;8.156;2023-04-25T04:36:56;8.40;99.90
10263;DHT22;5177;50.068;8.156;2023-04-25T04:39:22;8.30;99.90
10263;DHT22;5177;50.068;8.156;2023-04-25T04:41:47;8.30;99.90
10263;DHT22;5177;50.068;8.156;2023-04-25T04:44:13;8.30;99.90
10263;DHT22;5177;50.068;8.156;2023-04-25T04:46:39;8.20;99.90
10263;DHT22;5177;50.068;8.156;2023-04-25T04:49:06;8.20;99.90
10263;DHT22;5177;50.068;8.156;2023-04-25T04:51:31;8.20;99.90
10263;DHT22;5177;50.068;8.156;2023-04-25T04:53:57;8.20;99.90
10263;DHT22;5177;50.068;8.156;2023-04-25T04:56:24;8.10;99.90
10263;DHT22;5177;50.068;8.156;2023-04-25T04:58:50;8.00;99.90
10263;DHT22;5177;50.068;8.156;2023-04-25T05:01:17;8.00;99.90
10263;DHT22;5177;50.068;8.156;2023-04-25T05:03:43;7.90;99.90
10263;DHT22;5177;50.068;8.156;2023-04-25T05:06:08;8.00;99.90
10263;DHT22;5177;50.068;8.156;2023-04-25T05:08:34;7.90;99.90
10263;DHT22;5177;50.068;8.156;2023-04-25T05:11:00;7.90;99.90
10263;DHT22;5177;50.068;8.156;2023-04-25T05:13:25;7.90;99.90
10263;DHT22;5177;50.068;8.156;2023-04-25T05:15:51;7.90;99.90
10263;DHT22;5177;50.068;8.156;2023-04-25T05:18:16;7.90;99.90
10263;DHT22;5177;50.068;8.156;2023-04-25T05:20:42;7.90;99.90
10263;DHT22;5177;50.068;8.156;2023-04-25T05:23:07;7.90;99.90
10263;DHT22;5177;50.068;8.156;2023-04-25T05:25:33;8.00;99.90
10263;DHT22;5177;50.068;8.156;2023-04-25T05:27:58;8.10;99.90
10263;DHT22;5177;50.068;8.156;2023-04-25T05:30:24;8.20;99.90
10263;DHT22;5177;50.068;8.156;2023-04-25T05:32:50;8.20;99.90
10263;DHT22;5177;50.068;8.156;2023-04-25T05:35:15;8.30;99.90
10263;DHT22;5177;50.068;8.156;2023-04-25T05:37:41;8.30;99.90
10263;DHT22;5177;50.068;8.156;2023-04-25T05:40:08;8.40;99.90
10263;DHT22;5177;50.068;8.156;2023-04-25T05:42:34;8.40;99.90
10263;DHT22;5177;50.068;8.156;2023-04-25T05:44:59;8.40;99.90
10263;DHT22;5177;50.068;8.156;2023-04-25T05:47:26;8.40;99.90
10263;DHT22;5177;50.068;8.156;2023-04-25T05:49:51;8.50;99.90
10263;DHT22;5177;50.068;8.156;2023-04-25T05:52:17;8.50;99.90
10263;DHT22;5177;50.068;8.156;2023-04-25T05:54:42;8.40;99.90
10263;DHT22;5177;50.068;8.156;2023-04-25T05:57:08;8.40;1.00
10263;DHT22;5177;50.068;8.156;2023-04-25T05:59:33;8.50;1.00
10263;DHT22;5177;50.068;8.156;2023-04-25T06:01:59;8.40;1.00
10263;DHT22;5177;50.068;8.156;2023-04-25T06:04:25;8.50;1.00
10263;DHT22;5177;50.068;8.156;2023-04-25T06:06:51;8.70;1.00
10263;DHT22;5177;50.068;8.156;2023-04-25T06:09:16;8.60;1.00
10263;DHT22;5177;50.068;8.156;2023-04-25T06:11:42;8.50;1.00
10263;DHT22;5177;50.068;8.156;2023-04-25T06:14:08;8.60;66.00
10263;DHT22;5177;50.068;8.156;2023-04-25T06:16:33;8.70;99.90
10263;DHT22;5177;50.068;8.156;2023-04-25T06:18:59;8.80;99.90
10263;DHT22;5177;50.068;8.156;2023-04-25T06:21:24;8.80;99.90
10263;DHT22;5177;50.068;8.156;2023-04-25T06:23:50;8.80;99.90
10263;DHT22;5177;50.068;8.156;2023-04-25T06:26:16;8.70;99.90
10263;DHT22;5177;50.068;8.156;2023-04-25T06:28:41;8.80;99.90
10263;DHT22;5177;50.068;8.156;2023-04-25T06:31:07;8.80;99.90
10263;DHT22;5177;50.068;8.156;2023-04-25T06:33:32;8.90;99.90
10263;DHT22;5177;50.068;8.156;2023-04-25T06:35:58;9.00;99.90
10263;DHT22;5177;50.068;8.156;2023-04-25T06:38:23;9.20;99.90
10263;DHT22;5177;50.068;8.156;2023-04-25T06:40:49;9.30;99.90
10263;DHT22;5177;50.068;8.156;2023-04-25T06:43:14;9.60;99.90
10263;DHT22;5177;50.068;8.156;2023-04-25T06:45:40;9.70;99.90
10263;DHT22;5177;50.068;8.156;2023-04-25T06:48:06;9.80;99.90
10263;DHT22;5177;50.068;8.156;2023-04-25T06:50:31;10.10;99.90
10263;DHT22;5177;50.068;8.156;2023-04-25T06:52:57;10.30;99.90
10263;DHT22;5177;50.068;8.156;2023-04-25T06:55:22;10.30;99.90
10263;DHT22;5177;50.068;8.156;2023-04-25T06:57:47;10.40;99.90
10263;DHT22;5177;50.068;8.156;2023-04-25T07:00:13;10.20;99.90
10263;DHT22;5177;50.068;8.156;2023-04-25T07:02:39;10.10;99.90
10263;DHT22;5177;50.068;8.156;2023-04-25T07:05:07;10.10;99.90
10263;DHT22;5177;50.068;8.156;2023-04-25T07:07:32;10.10;99.90
10263;DHT22;5177;50.068;8.156;2023-04-25T07:09:58;10.00;99.90
10263;DHT22;5177;50.068;8.156;2023-04-25T07:12:23;10.10;99.90
10263;DHT22;5177;50.068;8.156;2023-04-25T07:14:49;10.20;99.90
10263;DHT22;5177;50.068;8.156;2023-04-25T07:17:14;10.40;99.90
10263;DHT22;5177;50.068;8.156;2023-04-25T07:19:40;10.60;99.90
10263;DHT22;5177;50.068;8.156;2023-04-25T07:22:06;10.70;99.90
10263;DHT22;5177;50.068;8.156;2023-04-25T07:24:32;10.80;99.90
10263;DHT22;5177;50.068;8.156;2023-04-25T07:26:57;11.00;99.90
10263;DHT22;5177;50.068;8.156;2023-04-25T07:29:23;11.20;99.90
10263;DHT22;5177;50.068;8.156;2023-04-25T07:31:49;11.20;99.90
10263;DHT22;5177;50.068;8.156;2023-04-25T07:34:14;11.40;99.90
10263;DHT22;5177;50.068;8.156;2023-04-25T07:36:41;11.50;99.90
10263;DHT22;5177;50.068;8.156;2023-04-25T07:39:06;11.60;99.90
10263;DHT22;5177;50.068;8.156;2023-04-25T07:41:34;11.60;99.90
10263;DHT22;5177;50.068;8.156;2023-04-25T07:44:00;11.60;99.90
10263;DHT22;5177;50.068;8.156;2023-04-25T07:46:25;11.70;99.90
10263;DHT22;5177;50.068;8.156;2023-04-25T07:48:51;11.70;99.90
10263;DHT22;5177;50.068;8.156;2023-04-25T07:51:16;11.80;99.90
10263;DHT22;5177;50.068;8.156;2023-04-25T07:53:45;11.80;99.90
10263;DHT22;5177;50.068;8.156;2023-04-25T07:56:10;11.80;99.90
10263;DHT22;5177;50.068;8.156;2023-04-25T07:58:36;11.80;99.90
10263;DHT22;5177;50.068;8.156;2023-04-25T08:01:02;11.90;99.90
10263;DHT22;5177;50.068;8.156;2023-04-25T08:03:27;11.70;99.90
10263;DHT22;5177;50.068;8.156;2023-04-25T08:05:53;11.70;99.90
10263;DHT22;5177;50.068;8.156;2023-04-25T08:08:18;11.60;99.90
10263;DHT22;5177;50.068;8.156;2023-04-25T08:10:44;11.50;99.90
10263;DHT22;5177;50.068;8.156;2023-04-25T08:13:09;11.40;99.90
10263;DHT22;5177;50.068;8.156;2023-04-25T08:15:35;11.50;99.90
10263;DHT22;5177;50.068;8.156;2023-04-25T08:18:00;11.50;99.90
10263;DHT22;5177;50.068;8.156;2023-04-25T08:20:26;11.50;99.90
10263;DHT22;5177;50.068;8.156;2023-04-25T08:22:51;11.60;99.90
10263;DHT22;5177;50.068;8.156;2023-04-25T08:25:17;11.80;99.90
10263;DHT22;5177;50.068;8.156;2023-04-25T08:27:43;12.00;99.90
10263;DHT22;5177;50.068;8.156;2023-04-25T08:30:08;12.20;99.90
10263;DHT22;5177;50.068;8.156;2023-04-25T08:32:34;12.40;99.90
10263;DHT22;5177;50.068;8.156;2023-04-25T08:34:59;12.50;99.90
10263;DHT22;5177;50.068;8.156;2023-04-25T08:37:25;12.90;99.90
10263;DHT22;5177;50.068;8.156;2023-04-25T08:39:51;13.00;99.90
10263;DHT22;5177;50.068;8.156;2023-04-25T08:42:18;13.30;99.90
10263;DHT22;5177;50.068;8.156;2023-04-25T08:44:45;13.50;99.90
10263;DHT22;5177;50.068;8.156;2023-04-25T08:47:10;13.40;99.90
10263;DHT22;5177;50.068;8.156;2023-04-25T08:49:36;13.30;99.90
10263;DHT22;5177;50.068;8.156;2023-04-25T08:52:03;13.40;99.90
10263;DHT22;5177;50.068;8.156;2023-04-25T08:54:31;13.40;99.90
10263;DHT22;5177;50.068;8.156;2023-04-25T08:56:57;13.20;99.90
10263;DHT22;5177;50.068;8.156;2023-04-25T08:59:23;13.20;99.90
10263;DHT22;5177;50.068;8.156;2023-04-25T09:01:49;13.30;99.90
10263;DHT22;5177;50.068;8.156;2023-04-25T09:04:15;13.40;99.90
10263;DHT22;5177;50.068;8.156;2023-04-25T09:06:40;13.70;99.90
10263;DHT22;5177;50.068;8.156;2023-04-25T09:09:07;14.00;99.90
10263;DHT22;5177;50.068;8.156;2023-04-25T09:11:33;14.30;99.90
10263;DHT22;5177;50.068;8.156;2023-04-25T09:14:18;14.50;99.90
10263;DHT22;5177;50.068;8.156;2023-04-25T09:21:49;13.90;99.90
10263;DHT22;5177;50.068;8.156;2023-04-25T09:24:14;13.70;99.90
10263;DHT22;5177;50.068;8.156;2023-04-25T09:26:40;13.50;99.90
10263;DHT22;5177;50.068;8.156;2023-04-25T09:29:06;13.50;99.90
10263;DHT22;5177;50.068;8.156;2023-04-25T09:31:34;13.60;99.90
10263;DHT22;5177;50.068;8.156;2023-04-25T09:34:00;13.90;99.90
10263;DHT22;5177;50.068;8.156;2023-04-25T09:36:29;14.10;99.90
10263;DHT22;5177;50.068;8.156;2023-04-25T09:38:55;14.50;99.90
10263;DHT22;5177;50.068;8.156;2023-04-25T09:41:24;15.00;99.90
10263;DHT22;5177;50.068;8.156;2023-04-25T09:43:50;15.10;99.90
10263;DHT22;5177;50.068;8.156;2023-04-25T09:46:16;14.90;99.90
10263;DHT22;5177;50.068;8.156;2023-04-25T09:48:50;14.50;99.90
10263;DHT22;5177;50.068;8.156;2023-04-25T09:51:15;14.30;99.90
10263;DHT22;5177;50.068;8.156;2023-04-25T09:53:44;14.00;99.90
10263;DHT22;5177;50.068;8.156;2023-04-25T09:56:15;13.90;99.90
10263;DHT22;5177;50.068;8.156;2023-04-25T09:58:41;13.80;99.90
10263;DHT22;5177;50.068;8.156;2023-04-25T10:01:07;13.60;99.90
10263;DHT22;5177;50.068;8.156;2023-04-25T10:03:34;13.40;99.90
10263;DHT22;5177;50.068;8.156;2023-04-25T10:06:00;13.40;99.90
10263;DHT22;5177;50.068;8.156;2023-04-25T10:08:33;13.20;99.90
10263;DHT22;5177;50.068;8.156;2023-04-25T10:11:00;13.10;99.90
10263;DHT22;5177;50.068;8.156;2023-04-25T10:13:26;13.00;99.90
10263;DHT22;5177;50.068;8.156;2023-04-25T10:15:52;12.90;99.90
10263;DHT22;5177;50.068;8.156;2023-04-25T10:18:18;12.90;99.90
10263;DHT22;5177;50.068;8.156;2023-04-25T10:20:45;13.00;99.90
10263;DHT22;5177;50.068;8.156;2023-04-25T10:23:12;13.10;99.90
10263;DHT22;5177;50.068;8.156;2023-04-25T10:25:38;13.30;99.90
10263;DHT22;5177;50.068;8.156;2023-04-25T10:28:04;13.50;99.90
10263;DHT22;5177;50.068;8.156;2023-04-25T10:30:30;13.70;99.90
10263;DHT22;5177;50.068;8.156;2023-04-25T10:32:55;13.50;99.90
10263;DHT22;5177;50.068;8.156;2023-04-25T10:35:25;13.20;99.90
10263;DHT22;5177;50.068;8.156;2023-04-25T10:38:03;13.20;99.90
10263;DHT22;5177;50.068;8.156;2023-04-25T10:40:29;13.00;99.90
10263;DHT22;5177;50.068;8.156;2023-04-25T10:42:55;13.10;99.90
10263;DHT22;5177;50.068;8.156;2023-04-25T10:45:21;13.00;99.90
10263;DHT22;5177;50.068;8.156;2023-04-25T10:47:47;13.10;99.90
10263;DHT22;5177;50.068;8.156;2023-04-25T10:50:14;13.00;99.90
10263;DHT22;5177;50.068;8.156;2023-04-25T10:52:40;12.90;99.90
10263;DHT22;5177;50.068;8.156;2023-04-25T10:55:06;12.80;99.90
10263;DHT22;5177;50.068;8.156;2023-04-25T10:57:41;12.80;99.90
10263;DHT22;5177;50.068;8.156;2023-04-25T11:05:08;12.70;99.90
10263;DHT22;5177;50.068;8.156;2023-04-25T11:07:45;13.00;99.90
10263;DHT22;5177;50.068;8.156;2023-04-25T11:10:14;13.40;99.90
10263;DHT22;5177;50.068;8.156;2023-04-25T11:12:40;13.70;99.90
10263;DHT22;5177;50.068;8.156;2023-04-25T11:15:06;13.80;99.90
10263;DHT22;5177;50.068;8.156;2023-04-25T11:17:32;13.80;99.90
10263;DHT22;5177;50.068;8.156;2023-04-25T11:19:58;13.70;99.90
10263;DHT22;5177;50.068;8.156;2023-04-25T11:22:24;13.70;99.90
10263;DHT22;5177;50.068;8.156;2023-04-25T11:24:49;13.70;99.90
10263;DHT22;5177;50.068;8.156;2023-04-25T11:27:16;13.50;99.90
10263;DHT22;5177;50.068;8.156;2023-04-25T11:29:41;13.40;99.90
10263;DHT22;5177;50.068;8.156;2023-04-25T11:32:07;13.30;99.90
10263;DHT22;5177;50.068;8.156;2023-04-25T11:34:33;13.10;99.90
10263;DHT22;5177;50.068;8.156;2023-04-25T11:36:59;12.90;99.90
10263;DHT22;5177;50.068;8.156;2023-04-25T11:39:25;12.90;99.90
10263;DHT22;5177;50.068;8.156;2023-04-25T11:41:51;12.90;99.90
10263;DHT22;5177;50.068;8.156;2023-04-25T11:44:17;12.70;99.90
10263;DHT22;5177;50.068;8.156;2023-04-25T11:46:43;12.80;99.90
10263;DHT22;5177;50.068;8.156;2023-04-25T11:49:09;12.80;99.90
10263;DHT22;5177;50.068;8.156;2023-04-25T11:51:42;12.80;99.90
10263;DHT22;5177;50.068;8.156;2023-04-25T11:54:08;12.80;99.90
10263;DHT22;5177;50.068;8.156;2023-04-25T11:56:34;12.70;99.90
10263;DHT22;5177;50.068;8.156;2023-04-25T11:59:00;12.60;99.90
10263;DHT22;5177;50.068;8.156;2023-04-25T12:01:27;12.50;99.90
10263;DHT22;5177;50.068;8.156;2023-04-25T12:03:53;12.50;99.90
10263;DHT22;5177;50.068;8.156;2023-04-25T12:06:18;12.50;99.90
10263;DHT22;5177;50.068;8.156;2023-04-25T12:09:02;12.40;99.90
10263;DHT22;5177;50.068;8.156;2023-04-25T12:11:31;12.40;99.90
10263;DHT22;5177;50.068;8.156;2023-04-25T12:14:04;12.50;99.90
10263;DHT22;5177;50.068;8.156;2023-04-25T12:16:39;12.50;99.90
10263;DHT22;5177;50.068;8.156;2023-04-25T12:19:05;12.50;99.90
10263;DHT22;5177;50.068;8.156;2023-04-25T12:21:32;12.70;99.90
10263;DHT22;5177;50.068;8.156;2023-04-25T12:24:08;12.80;99.90
10263;DHT22;5177;50.068;8.156;2023-04-25T12:26:47;13.00;99.90
10263;DHT22;5177;50.068;8.156;2023-04-25T12:29:19;13.10;99.90
10263;DHT22;5177;50.068;8.156;2023-04-25T12:31:45;13.10;99.90
10263;DHT22;5177;50.068;8.156;2023-04-25T12:34:11;13.20;99.90
10263;DHT22;5177;50.068;8.156;2023-04-25T12:36:37;13.50;99.90
10263;DHT22;5177;50.068;8.156;2023-04-25T12:39:03;14.20;99.90
10263;DHT22;5177;50.068;8.156;2023-04-25T12:41:29;14.80;99.90
10263;DHT22;5177;50.068;8.156;2023-04-25T12:43:55;15.50;99.90
10263;DHT22;5177;50.068;8.156;2023-04-25T12:46:20;16.00;99.90
10263;DHT22;5177;50.068;8.156;2023-04-25T12:48:46;15.70;99.90
10263;DHT22;5177;50.068;8.156;2023-04-25T12:51:11;15.50;99.90
10263;DHT22;5177;50.068;8.156;2023-04-25T12:53:37;15.20;99.90
10263;DHT22;5177;50.068;8.156;2023-04-25T12:56:04;14.60;99.90
10263;DHT22;5177;50.068;8.156;2023-04-25T12:58:29;14.10;99.90
10263;DHT22;5177;50.068;8.156;2023-04-25T13:00:55;13.60;99.90
10263;DHT22;5177;50.068;8.156;2023-04-25T13:03:21;13.30;99.90
10263;DHT22;5177;50.068;8.156;2023-04-25T13:05:47;13.20;99.90
10263;DHT22;5177;50.068;8.156;2023-04-25T13:08:13;13.10;99.90
10263;DHT22;5177;50.068;8.156;2023-04-25T13:10:38;13.10;99.90
10263;DHT22;5177;50.068;8.156;2023-04-25T13:13:04;12.90;99.90
10263;DHT22;5177;50.068;8.156;2023-04-25T13:15:29;13.10;99.90
10263;DHT22;5177;50.068;8.156;2023-04-25T13:17:55;13.30;99.90
10263;DHT22;5177;50.068;8.156;2023-04-25T13:20:21;14.30;99.90
10263;DHT22;5177;50.068;8.156;2023-04-25T13:22:47;15.20;99.90
10263;DHT22;5177;50.068;8.156;2023-04-25T13:25:13;15.90;99.90
10263;DHT22;5177;50.068;8.156;2023-04-25T13:27:38;15.70;99.90
10263;DHT22;5177;50.068;8.156;2023-04-25T13:30:06;15.70;99.90
10263;DHT22;5177;50.068;8.156;2023-04-25T13:32:35;15.50;99.90
10263;DHT22;5177;50.068;8.156;2023-04-25T13:35:10;15.10;99.90
10263;DHT22;5177;50.068;8.156;2023-04-25T13:37:36;14.70;99.90
10263;DHT22;5177;50.068;8.156;2023-04-25T13:40:02;14.50;99.90
10263;DHT22;5177;50.068;8.156;2023-04-25T13:42:30;14.50;99.90
10263;DHT22;5177;50.068;8.156;2023-04-25T13:44:56;14.50;99.90
10263;DHT22;5177;50.068;8.156;2023-04-25T13:47:21;14.30;99.90
10263;DHT22;5177;50.068;8.156;2023-04-25T13:49:47;14.10;99.90
10263;DHT22;5177;50.068;8.156;2023-04-25T13:52:13;14.00;99.90
10263;DHT22;5177;50.068;8.156;2023-04-25T13:54:38;13.90;99.90
10263;DHT22;5177;50.068;8.156;2023-04-25T13:57:04;13.80;99.90
10263;DHT22;5177;50.068;8.156;2023-04-25T13:59:30;13.90;99.90
10263;DHT22;5177;50.068;8.156;2023-04-25T14:01:56;14.10;99.90
10263;DHT22;5177;50.068;8.156;2023-04-25T14:04:21;13.90;99.90
10263;DHT22;5177;50.068;8.156;2023-04-25T14:06:47;13.90;99.90
10263;DHT22;5177;50.068;8.156;2023-04-25T14:09:12;13.80;99.90
10263;DHT22;5177;50.068;8.156;2023-04-25T14:11:38;13.50;99.90
10263;DHT22;5177;50.068;8.156;2023-04-25T14:14:04;13.30;99.90
10263;DHT22;5177;50.068;8.156;2023-04-25T14:16:31;13.30;99.90
10263;DHT22;5177;50.068;8.156;2023-04-25T14:18:59;13.10;99.90
10263;DHT22;5177;50.068;8.156;2023-04-25T14:21:25;13.10;99.90
10263;DHT22;5177;50.068;8.156;2023-04-25T14:23:52;13.20;99.90
10263;DHT22;5177;50.068;8.156;2023-04-25T14:26:17;13.30;99.90
10263;DHT22;5177;50.068;8.156;2023-04-25T14:28:43;13.80;99.90
10263;DHT22;5177;50.068;8.156;2023-04-25T14:31:09;15.10;99.90
10263;DHT22;5177;50.068;8.156;2023-04-25T14:33:34;17.10;99.90
10263;DHT22;5177;50.068;8.156;2023-04-25T14:36:00;18.10;94.80
10263;DHT22;5177;50.068;8.156;2023-04-25T14:38:26;17.90;83.60
10263;DHT22;5177;50.068;8.156;2023-04-25T14:40:52;16.90;89.10
10263;DHT22;5177;50.068;8.156;2023-04-25T14:43:19;16.20;93.00
10263;DHT22;5177;50.068;8.156;2023-04-25T14:45:44;15.50;95.00
10263;DHT22;5177;50.068;8.156;2023-04-25T14:48:10;15.20;98.20
10263;DHT22;5177;50.068;8.156;2023-04-25T14:50:35;14.60;99.20
10263;DHT22;5177;50.068;8.156;2023-04-25T14:53:01;14.00;99.90
10263;DHT22;5177;50.068;8.156;2023-04-25T14:55:27;13.70;99.90
10263;DHT22;5177;50.068;8.156;2023-04-25T14:57:53;13.40;99.90
10263;DHT22;5177;50.068;8.156;2023-04-25T15:00:19;13.20;99.90
10263;DHT22;5177;50.068;8.156;2023-04-25T15:02:46;13.10;99.90
10263;DHT22;5177;50.068;8.156;2023-04-25T15:05:12;13.20;99.90
10263;DHT22;5177;50.068;8.156;2023-04-25T15:07:38;13.30;99.90
10263;DHT22;5177;50.068;8.156;2023-04-25T15:10:05;13.30;99.90
10263;DHT22;5177;50.068;8.156;2023-04-25T15:12:31;13.50;99.90
10263;DHT22;5177;50.068;8.156;2023-04-25T15:14:57;13.70;99.90
10263;DHT22;5177;50.068;8.156;2023-04-25T15:17:22;13.60;99.90
10263;DHT22;5177;50.068;8.156;2023-04-25T15:19:48;13.70;99.90
10263;DHT22;5177;50.068;8.156;2023-04-25T15:22:13;13.70;99.90
10263;DHT22;5177;50.068;8.156;2023-04-25T15:24:39;13.70;99.90
10263;DHT22;5177;50.068;8.156;2023-04-25T15:27:05;13.70;99.90
10263;DHT22;5177;50.068;8.156;2023-04-25T15:29:31;13.70;99.90
10263;DHT22;5177;50.068;8.156;2023-04-25T15:31:56;13.80;99.90
10263;DHT22;5177;50.068;8.156;2023-04-25T15:34:22;13.80;99.90
10263;DHT22;5177;50.068;8.156;2023-04-25T15:36:47;13.60;99.90
10263;DHT22;5177;50.068;8.156;2023-04-25T15:39:14;13.50;99.90
10263;DHT22;5177;50.068;8.156;2023-04-25T15:41:39;13.70;99.90
10263;DHT22;5177;50.068;8.156;2023-04-25T15:44:06;13.90;99.90
10263;DHT22;5177;50.068;8.156;2023-04-25T15:46:32;14.10;99.90
10263;DHT22;5177;50.068;8.156;2023-04-25T15:48:58;14.20;99.40
10263;DHT22;5177;50.068;8.156;2023-04-25T15:51:23;14.00;98.40
10263;DHT22;5177;50.068;8.156;2023-04-25T15:53:49;14.10;97.60
10263;DHT22;5177;50.068;8.156;2023-04-25T15:56:15;14.30;98.40